Time;durP1;ratioP1;P1;durP2;ratioP2;P2;SDS_P1;SDS_P2;PMS_P1;PMS_P2;Temp;Humidity;BMP_temperature;BMP_pressure;BME280_temperature;BME280_humidity;BME280_pressure;Samples;Min_cycle;Max_cycle;Signal;HPM_P1;HPM_P2
2021/12/30 00:00:17;;;;;;;1999.90;999.90;;;10.50;99.90;;;;;;5011050;28;20506;-73
2021/12/30 00:02:44;;;;;;;1999.90;999.90;;;10.50;99.90;;;;;;5011072;28;20518;-73
2021/12/30 00:05:13;;;;;;;1999.90;999.90;;;10.50;99.90;;;;;;5011482;28;20447;-75
2021/12/30 00:07:40;;;;;;;1999.90;999.90;;;10.50;99.90;;;;;;5010382;28;20982;-73
2021/12/30 00:10:07;;;;;;;1999.90;999.90;;;10.40;99.90;;;;;;5010280;28;20853;-73
2021/12/30 00:12:34;;;;;;;1999.90;999.90;;;10.40;99.90;;;;;;5010015;28;20468;-74
2021/12/30 00:15:01;;;;;;;1999.90;999.90;;;10.40;99.90;;;;;;5010018;28;21008;-74
2021/12/30 00:17:28;;;;;;;1999.90;999.90;;;10.40;99.90;;;;;;5010519;28;20448;-74
2021/12/30 00:19:54;;;;;;;1999.90;999.90;;;10.40;99.90;;;;;;4990159;28;20461;-73
2021/12/30 00:22:23;;;;;;;1999.90;999.90;;;10.50;99.90;;;;;;5009070;28;20484;-73
2021/12/30 00:24:50;;;;;;;1999.90;999.90;;;10.50;99.90;;;;;;5009589;28;20476;-74
2021/12/30 00:27:17;;;;;;;1999.90;999.90;;;10.50;99.90;;;;;;5009294;28;20506;-74
2021/12/30 00:29:43;;;;;;;1999.90;999.90;;;10.50;99.90;;;;;;5009663;28;20456;-73
2021/12/30 00:32:10;;;;;;;1999.90;999.90;;;10.50;99.90;;;;;;5009564;28;20891;-73
2021/12/30 00:34:37;;;;;;;1999.90;999.90;;;10.50;99.90;;;;;;4993124;28;20541;-73
2021/12/30 00:37:04;;;;;;;1999.90;999.90;;;10.50;99.90;;;;;;5008455;28;20452;-73
2021/12/30 00:39:32;;;;;;;1999.90;999.90;;;10.50;99.90;;;;;;5009182;28;20448;-74
2021/12/30 00:41:59;;;;;;;1999.90;999.90;;;10.60;99.90;;;;;;5008172;28;20475;-73
2021/12/30 00:44:25;;;;;;;1999.90;999.90;;;10.60;99.90;;;;;;5009276;28;20491;-75
2021/12/30 00:46:52;;;;;;;1999.90;999.90;;;10.70;99.90;;;;;;5009349;28;20467;-73
2021/12/30 00:49:19;;;;;;;1999.90;999.90;;;10.80;99.90;;;;;;4994926;28;20518;-73
2021/12/30 00:51:46;;;;;;;1999.90;999.90;;;10.80;99.90;;;;;;5003873;28;20502;-73
2021/12/30 00:54:12;;;;;;;1999.90;999.90;;;10.90;99.90;;;;;;5009666;28;21093;-73
2021/12/30 00:56:40;;;;;;;1999.90;999.90;;;10.90;99.90;;;;;;5009301;28;20507;-73
2021/12/30 00:59:07;;;;;;;1999.90;999.90;;;10.90;99.90;;;;;;5002681;28;20456;-74
2021/12/30 01:01:34;;;;;;;1999.90;999.90;;;10.90;99.90;;;;;;5009021;28;20484;-73
2021/12/30 01:04:00;;;;;;;1999.90;999.90;;;10.90;99.90;;;;;;5008694;28;20946;-73
2021/12/30 01:06:28;;;;;;;1999.90;999.90;;;10.90;99.90;;;;;;5010484;28;20900;-74
2021/12/30 01:08:55;;;;;;;1999.90;999.90;;;11.00;99.90;;;;;;5005953;28;20527;-73
2021/12/30 01:11:24;;;;;;;1999.90;999.90;;;10.90;99.90;;;;;;5010066;28;20448;-73
2021/12/30 01:14:00;;;;;;;1999.90;999.90;;;10.90;99.90;;;;;;5009944;28;20538;-74
2021/12/30 01:16:29;;;;;;;1999.90;999.90;;;10.90;99.90;;;;;;5010505;28;20455;-72
2021/12/30 01:19:01;;;;;;;1999.90;999.90;;;10.90;99.90;;;;;;5008329;28;20444;-73
2021/12/30 01:21:30;;;;;;;1999.90;999.90;;;10.90;99.90;;;;;;5007242;28;20575;-73
2021/12/30 01:23:58;;;;;;;1999.90;999.90;;;10.80;99.90;;;;;;4995404;28;20472;-73
2021/12/30 01:26:25;;;;;;;1999.90;999.90;;;10.80;99.90;;;;;;5001047;28;21010;-72
2021/12/30 01:28:54;;;;;;;1999.90;999.90;;;10.90;99.90;;;;;;5008815;28;20601;-73
2021/12/30 01:31:21;;;;;;;1999.90;999.90;;;11.00;99.90;;;;;;5008350;28;20503;-75
2021/12/30 01:33:48;;;;;;;1999.90;999.90;;;11.00;99.90;;;;;;5008680;28;20468;-74
2021/12/30 01:36:15;;;;;;;1999.90;999.90;;;11.00;99.90;;;;;;5008122;28;20460;-73
2021/12/30 01:38:43;;;;;;;1999.90;999.90;;;11.00;99.90;;;;;;5007954;28;20455;-73
2021/12/30 01:41:10;;;;;;;1999.90;999.90;;;10.90;99.90;;;;;;5008266;28;20551;-73
2021/12/30 01:43:37;;;;;;;1999.90;999.90;;;10.90;99.90;;;;;;5009005;28;20461;-73
2021/12/30 01:46:07;;;;;;;1999.90;999.90;;;10.90;99.90;;;;;;5009928;28;20525;-73
2021/12/30 01:48:34;;;;;;;1999.90;999.90;;;10.90;99.90;;;;;;5010236;28;21006;-73
2021/12/30 01:51:01;;;;;;;1999.90;999.90;;;10.90;99.90;;;;;;5009726;28;20809;-73
2021/12/30 01:53:28;;;;;;;1999.90;999.90;;;11.00;99.90;;;;;;5009524;28;20534;-73
2021/12/30 01:55:55;;;;;;;1999.90;999.90;;;10.90;99.90;;;;;;5010025;28;20456;-75
2021/12/30 01:58:21;;;;;;;1999.90;999.90;;;10.90;99.90;;;;;;5010467;28;20448;-73
2021/12/30 02:00:50;;;;;;;1999.90;999.90;;;10.90;99.90;;;;;;5009898;28;20460;-72
2021/12/30 02:03:19;;;;;;;1999.90;999.90;;;10.90;99.90;;;;;;4993488;28;20492;-73
2021/12/30 02:05:46;;;;;;;1999.90;999.90;;;10.90;99.90;;;;;;5009745;28;20457;-73
2021/12/30 02:08:15;;;;;;;1999.90;999.90;;;10.90;99.90;;;;;;5009434;28;20511;-73
2021/12/30 02:10:43;;;;;;;1999.90;999.90;;;10.90;99.90;;;;;;5010042;28;20459;-74
2021/12/30 02:13:11;;;;;;;1999.90;999.90;;;10.90;99.90;;;;;;5009951;28;20522;-74
2021/12/30 02:15:38;;;;;;;1999.90;999.90;;;10.80;99.90;;;;;;5009133;28;20456;-73
2021/12/30 02:18:04;;;;;;;1999.90;999.90;;;10.80;99.90;;;;;;5011252;28;20498;-75
2021/12/30 02:20:43;;;;;;;1999.90;999.90;;;10.90;99.90;;;;;;5009434;28;20487;-73
2021/12/30 02:23:10;;;;;;;1999.90;999.90;;;10.90;99.90;;;;;;5009541;28;20491;-74
2021/12/30 02:25:37;;;;;;;1999.90;999.90;;;10.90;99.90;;;;;;5009601;28;20522;-73
2021/12/30 02:28:07;;;;;;;1999.90;999.90;;;10.90;99.90;;;;;;5009914;28;20456;-73
2021/12/30 02:30:34;;;;;;;1999.90;999.90;;;11.10;99.90;;;;;;5009171;28;20518;-73
2021/12/30 02:33:00;;;;;;;1999.90;999.90;;;11.10;99.90;;;;;;5009736;28;20468;-73
2021/12/30 02:35:27;;;;;;;1999.90;999.90;;;11.10;99.90;;;;;;5013673;28;20555;-73
2021/12/30 02:37:56;;;;;;;1999.90;999.90;;;11.00;99.90;;;;;;5012910;28;20452;-74
2021/12/30 02:40:25;;;;;;;1999.90;999.90;;;11.00;99.90;;;;;;5013167;28;20595;-73
2021/12/30 02:42:52;;;;;;;1999.90;999.90;;;11.10;99.90;;;;;;5013525;28;20488;-72
2021/12/30 02:45:18;;;;;;;1999.90;999.90;;;11.10;99.90;;;;;;5013054;28;20483;-75
2021/12/30 02:47:45;;;;;;;1999.90;999.90;;;11.10;99.90;;;;;;5014185;28;20941;-73
2021/12/30 02:50:12;;;;;;;1999.90;999.90;;;11.20;99.90;;;;;;5012910;28;20506;-73
2021/12/30 02:52:38;;;;;;;1999.90;999.90;;;11.30;99.90;;;;;;5012893;28;20449;-73
2021/12/30 02:55:07;;;;;;;1999.90;999.90;;;11.40;99.90;;;;;;5012238;28;20479;-75
2021/12/30 02:57:34;;;;;;;1999.90;999.90;;;11.30;99.90;;;;;;5012844;28;20518;-74
2021/12/30 03:00:01;;;;;;;1999.90;999.90;;;11.40;99.90;;;;;;5012271;28;20514;-71
2021/12/30 03:02:27;;;;;;;1999.90;999.90;;;11.30;99.90;;;;;;5009892;28;21049;-72
2021/12/30 03:04:54;;;;;;;1999.90;999.90;;;11.40;99.90;;;;;;5012021;28;21137;-73
2021/12/30 03:07:20;;;;;;;1999.90;999.90;;;11.30;99.90;;;;;;5012839;28;20447;-72
2021/12/30 03:09:48;;;;;;;1999.90;999.90;;;11.10;99.90;;;;;;5012528;28;20448;-74
2021/12/30 03:12:16;;;;;;;1999.90;999.90;;;11.20;99.90;;;;;;5012454;28;20976;-73
2021/12/30 03:14:43;;;;;;;1999.90;999.90;;;11.10;99.90;;;;;;5012656;28;20475;-74
2021/12/30 03:17:11;;;;;;;1999.90;999.90;;;11.10;99.90;;;;;;5013955;28;20924;-73
2021/12/30 03:19:38;;;;;;;1999.90;999.90;;;10.90;99.90;;;;;;5012687;28;20456;-73
2021/12/30 03:22:04;;;;;;;1999.90;999.90;;;10.80;99.90;;;;;;5012360;28;20999;-72
2021/12/30 03:24:31;;;;;;;1999.90;999.90;;;10.80;99.90;;;;;;5011962;28;20537;-74
2021/12/30 03:26:58;;;;;;;1999.90;999.90;;;10.70;99.90;;;;;;5012022;28;20971;-73
2021/12/30 03:29:26;;;;;;;1999.90;999.90;;;10.90;99.90;;;;;;5012092;28;20460;-73
2021/12/30 03:31:53;;;;;;;1999.90;999.90;;;10.90;99.90;;;;;;5012216;28;20448;-73
2021/12/30 03:34:19;;;;;;;1999.90;999.90;;;10.90;99.90;;;;;;5012081;28;20530;-74
2021/12/30 03:36:46;;;;;;;1999.90;999.90;;;11.00;99.90;;;;;;5011617;28;20486;-74
2021/12/30 03:39:14;;;;;;;1999.90;999.90;;;10.90;99.90;;;;;;5011967;28;20506;-72
2021/12/30 03:41:41;;;;;;;1999.90;999.90;;;11.00;99.90;;;;;;5012196;28;20456;-74
2021/12/30 03:44:08;;;;;;;1999.90;999.90;;;11.20;99.90;;;;;;5012279;28;20479;-73
2021/12/30 03:46:36;;;;;;;1999.90;999.90;;;11.20;99.90;;;;;;5011598;28;20467;-73
2021/12/30 03:49:05;;;;;;;1999.90;999.90;;;11.30;99.90;;;;;;5010452;28;20471;-73
2021/12/30 03:51:38;;;;;;;1999.90;999.90;;;11.40;99.90;;;;;;5012980;28;20527;-72
2021/12/30 03:54:05;;;;;;;1999.90;999.90;;;11.30;99.90;;;;;;5014861;28;21070;-72
2021/12/30 03:56:32;;;;;;;1999.90;999.90;;;11.30;99.90;;;;;;5014473;28;20502;-74
2021/12/30 03:59:00;;;;;;;1999.90;999.90;;;11.30;99.90;;;;;;5013663;28;20451;-72
2021/12/30 04:01:28;;;;;;;1999.90;999.90;;;11.30;99.90;;;;;;5013213;28;20502;-72
2021/12/30 04:03:57;;;;;;;1999.90;999.90;;;11.20;99.90;;;;;;5010876;28;20484;-73
2021/12/30 04:06:25;;;;;;;1999.90;999.90;;;11.30;99.90;;;;;;5011842;28;20448;-73
2021/12/30 04:08:52;;;;;;;1999.90;999.90;;;11.30;99.90;;;;;;5011428;28;20460;-73
2021/12/30 04:11:18;;;;;;;1999.90;999.90;;;11.30;99.90;;;;;;5011661;28;21014;-73
2021/12/30 04:13:45;;;;;;;1999.90;999.90;;;11.30;99.90;;;;;;5011116;28;20503;-74
2021/12/30 04:16:13;;;;;;;1999.90;999.90;;;11.40;99.90;;;;;;5012019;28;20452;-72
2021/12/30 04:18:39;;;;;;;1999.90;999.90;;;11.40;99.90;;;;;;5008770;28;20482;-73
2021/12/30 04:21:08;;;;;;;1999.90;999.90;;;11.40;99.90;;;;;;5011089;28;20502;-74
2021/12/30 04:23:34;;;;;;;1999.90;999.90;;;11.50;99.90;;;;;;5011026;28;21067;-73
2021/12/30 04:26:01;;;;;;;1999.90;999.90;;;11.50;99.90;;;;;;5011381;28;20506;-73
2021/12/30 04:28:27;;;;;;;1999.90;999.90;;;11.50;99.90;;;;;;5011398;28;20460;-73
2021/12/30 04:30:54;;;;;;;1999.90;999.90;;;11.50;99.90;;;;;;5010774;28;20960;-74
2021/12/30 04:33:21;;;;;;;1999.90;999.90;;;11.60;99.90;;;;;;5011646;28;20475;-73
2021/12/30 04:35:49;;;;;;;1999.90;999.90;;;11.60;99.90;;;;;;5012136;28;20452;-72
2021/12/30 04:38:17;;;;;;;1999.90;999.90;;;11.50;99.90;;;;;;5012765;28;20452;-72
2021/12/30 04:40:44;;;;;;;1999.90;999.90;;;11.40;99.90;;;;;;5012554;28;20498;-73
2021/12/30 04:43:11;;;;;;;1999.90;999.90;;;11.40;99.90;;;;;;5011852;28;21178;-73
2021/12/30 04:45:37;;;;;;;1999.90;999.90;;;11.30;99.90;;;;;;5012632;28;20456;-72
2021/12/30 04:48:04;;;;;;;1999.90;999.90;;;11.40;99.90;;;;;;5011721;28;20829;-72
2021/12/30 04:50:31;;;;;;;1999.90;999.90;;;11.50;99.90;;;;;;5010741;28;20448;-73
2021/12/30 04:52:58;;;;;;;1999.90;999.90;;;11.50;99.90;;;;;;5010577;28;20464;-74
2021/12/30 04:55:26;;;;;;;1999.90;999.90;;;11.50;99.90;;;;;;5010969;28;20456;-73
2021/12/30 04:57:53;;;;;;;1999.90;999.90;;;11.40;99.90;;;;;;5011270;28;20444;-72
2021/12/30 05:00:19;;;;;;;1999.90;999.90;;;11.40;99.90;;;;;;5011625;28;20460;-72
2021/12/30 05:03:07;;;;;;;1999.90;999.90;;;11.30;99.90;;;;;;5010848;28;21000;-73
2021/12/30 05:05:36;;;;;;;1999.90;999.90;;;11.30;99.90;;;;;;5011678;28;20456;-72
2021/12/30 05:08:03;;;;;;;1999.90;999.90;;;11.30;99.90;;;;;;5010795;28;20452;-73
2021/12/30 05:10:32;;;;;;;1999.90;999.90;;;11.30;99.90;;;;;;5011856;28;20444;-73
2021/12/30 05:12:58;;;;;;;1999.90;999.90;;;11.20;99.90;;;;;;5010336;28;20897;-72
2021/12/30 05:15:25;;;;;;;1999.90;999.90;;;11.30;99.90;;;;;;5008365;28;20540;-72
2021/12/30 05:17:52;;;;;;;1999.90;999.90;;;11.30;99.90;;;;;;5011126;28;20452;-74
2021/12/30 05:20:18;;;;;;;1999.90;999.90;;;11.20;99.90;;;;;;5013670;28;20456;-72
2021/12/30 05:22:45;;;;;;;1999.90;999.90;;;11.20;99.90;;;;;;5011259;28;20530;-72
2021/12/30 05:25:13;;;;;;;1999.90;999.90;;;11.20;99.90;;;;;;5013598;28;20444;-73
2021/12/30 05:27:41;;;;;;;1999.90;999.90;;;11.30;99.90;;;;;;5011830;28;20444;-72
2021/12/30 05:30:10;;;;;;;1999.90;999.90;;;11.20;99.90;;;;;;5012746;28;20460;-72
2021/12/30 05:32:37;;;;;;;1999.90;999.90;;;11.20;99.90;;;;;;5013023;28;20448;-72
2021/12/30 05:35:04;;;;;;;1999.90;999.90;;;11.20;99.90;;;;;;5012736;28;20451;-72
2021/12/30 05:37:31;;;;;;;1999.90;999.90;;;11.10;99.90;;;;;;5012167;28;20507;-75
2021/12/30 05:39:58;;;;;;;1999.90;999.90;;;11.10;99.90;;;;;;5012476;28;20522;-72
2021/12/30 05:42:24;;;;;;;1999.90;999.90;;;11.20;99.90;;;;;;5012473;28;20448;-72
2021/12/30 05:44:53;;;;;;;1999.90;999.90;;;11.20;99.90;;;;;;5012506;28;21077;-72
2021/12/30 05:47:20;;;;;;;1999.90;999.90;;;11.20;99.90;;;;;;5012190;28;20494;-74
2021/12/30 05:49:47;;;;;;;1999.90;999.90;;;11.20;99.90;;;;;;5012718;28;21071;-74
2021/12/30 05:52:14;;;;;;;1999.90;999.90;;;11.10;99.90;;;;;;5012202;28;20514;-72
2021/12/30 05:54:42;;;;;;;1999.90;999.90;;;11.10;99.90;;;;;;5011603;28;20530;-72
2021/12/30 05:57:09;;;;;;;1999.90;999.90;;;11.00;99.90;;;;;;5012461;28;20480;-74
2021/12/30 05:59:36;;;;;;;1999.90;999.90;;;11.10;99.90;;;;;;5011834;28;20448;-73
2021/12/30 06:02:04;;;;;;;1999.90;999.90;;;11.10;99.90;;;;;;5012580;28;21014;-72
2021/12/30 06:04:31;;;;;;;1999.90;999.90;;;11.10;99.90;;;;;;5011936;28;20511;-75
2021/12/30 06:06:58;;;;;;;1999.90;999.90;;;11.10;99.90;;;;;;5012014;28;20869;-72
2021/12/30 06:09:26;;;;;;;1999.90;999.90;;;11.10;99.90;;;;;;5014966;28;20876;-72
2021/12/30 06:11:53;;;;;;;1999.90;999.90;;;11.00;99.90;;;;;;5012842;28;20453;-72
2021/12/30 06:14:20;;;;;;;1999.90;999.90;;;11.00;99.90;;;;;;5011414;28;20542;-72
2021/12/30 06:16:46;;;;;;;1999.90;999.90;;;11.00;99.90;;;;;;5016232;28;20483;-72
2021/12/30 06:19:14;;;;;;;1999.90;999.90;;;10.90;99.90;;;;;;5016374;28;20459;-72
2021/12/30 06:21:41;;;;;;;1999.90;999.90;;;10.90;99.90;;;;;;5015577;28;20460;-73
2021/12/30 06:24:08;;;;;;;1999.90;999.90;;;11.10;99.90;;;;;;5015644;28;20654;-73
2021/12/30 06:26:34;;;;;;;1999.90;999.90;;;11.30;99.90;;;;;;5013855;28;20498;-70
2021/12/30 06:29:01;;;;;;;1999.90;999.90;;;11.40;99.90;;;;;;5008031;28;20456;-73
2021/12/30 06:31:28;;;;;;;1999.90;999.90;;;11.40;99.90;;;;;;5015100;28;20452;-73
2021/12/30 06:33:54;;;;;;;1999.90;999.90;;;11.30;99.90;;;;;;5015368;28;20983;-73
2021/12/30 06:36:22;;;;;;;1999.90;999.90;;;11.40;99.90;;;;;;5016500;28;20480;-72
2021/12/30 06:38:49;;;;;;;1999.90;999.90;;;11.30;99.90;;;;;;5016354;28;20462;-72
2021/12/30 06:41:16;;;;;;;1999.90;999.90;;;11.30;99.90;;;;;;5014992;28;20486;-73
2021/12/30 06:43:43;;;;;;;1999.90;999.90;;;11.40;99.90;;;;;;5016112;28;20557;-72
2021/12/30 06:46:10;;;;;;;1999.90;999.90;;;11.50;99.90;;;;;;5014277;28;20879;-72
2021/12/30 06:48:37;;;;;;;1999.90;999.90;;;11.50;99.90;;;;;;5007696;28;21014;-72
2021/12/30 06:51:05;;;;;;;1999.90;999.90;;;11.50;99.90;;;;;;5015227;28;20460;-72
2021/12/30 06:53:34;;;;;;;1999.90;999.90;;;11.50;99.90;;;;;;5015160;28;20538;-73
2021/12/30 06:56:01;;;;;;;1999.90;999.90;;;11.60;99.90;;;;;;5015271;28;20452;-74
2021/12/30 06:58:28;;;;;;;1999.90;999.90;;;11.60;99.90;;;;;;5015580;28;20474;-72
2021/12/30 07:00:54;;;;;;;1999.90;999.90;;;11.70;99.90;;;;;;5016188;28;20452;-72
2021/12/30 07:03:21;;;;;;;1999.90;999.90;;;11.70;99.90;;;;;;5015335;28;20484;-72
2021/12/30 07:05:48;;;;;;;1999.90;999.90;;;11.80;99.90;;;;;;5016634;28;20463;-73
2021/12/30 07:08:14;;;;;;;1999.90;999.90;;;11.90;99.90;;;;;;5014475;28;20506;-73
2021/12/30 07:10:42;;;;;;;1999.90;999.90;;;11.90;99.90;;;;;;5015013;28;20498;-71
2021/12/30 07:13:09;;;;;;;1999.90;999.90;;;11.90;99.90;;;;;;5014456;28;20471;-72
2021/12/30 07:15:36;;;;;;;1999.90;999.90;;;11.90;99.90;;;;;;5014126;28;20518;-72
2021/12/30 07:18:02;;;;;;;1999.90;999.90;;;11.90;99.90;;;;;;5014436;28;20448;-72
2021/12/30 07:20:29;;;;;;;1999.90;999.90;;;11.90;99.90;;;;;;5014010;28;20833;-73
2021/12/30 07:22:56;;;;;;;1999.90;999.90;;;11.90;99.90;;;;;;5014451;28;20472;-72
2021/12/30 07:25:23;;;;;;;1999.90;999.90;;;11.80;99.90;;;;;;5014699;28;20464;-73
2021/12/30 07:27:53;;;;;;;1999.90;999.90;;;11.80;99.90;;;;;;5013079;28;20510;-73
2021/12/30 07:30:22;;;;;;;1999.90;999.90;;;11.70;99.90;;;;;;5013652;28;20452;-72
2021/12/30 07:32:49;;;;;;;1999.90;999.90;;;11.70;99.90;;;;;;5013343;28;20464;-70
2021/12/30 07:35:17;;;;;;;1999.90;999.90;;;11.80;99.90;;;;;;5014918;28;20452;-72
2021/12/30 07:37:44;;;;;;;1999.90;999.90;;;11.80;99.90;;;;;;5013773;28;20801;-74
2021/12/30 07:40:12;;;;;;;1999.90;999.90;;;11.90;99.90;;;;;;5013455;28;20522;-73
2021/12/30 07:42:38;;;;;;;1999.90;999.90;;;11.90;99.90;;;;;;5014558;28;20459;-73
2021/12/30 07:45:09;;;;;;;1999.90;999.90;;;12.10;99.90;;;;;;5013068;28;20488;-73
2021/12/30 07:47:35;;;;;;;1999.90;999.90;;;12.00;99.90;;;;;;5012868;28;20448;-73
2021/12/30 07:50:02;;;;;;;1999.90;999.90;;;12.10;99.90;;;;;;5013487;28;20452;-73
2021/12/30 07:52:31;;;;;;;1999.90;999.90;;;12.10;99.90;;;;;;5011832;28;20460;-74
2021/12/30 07:54:58;;;;;;;1999.90;999.90;;;12.10;99.90;;;;;;5010118;28;20448;-74
2021/12/30 07:57:24;;;;;;;1999.90;999.90;;;12.10;99.90;;;;;;5012973;28;20894;-73
2021/12/30 07:59:52;;;;;;;1999.90;999.90;;;12.20;99.90;;;;;;5015722;28;20452;-72
2021/12/30 08:02:21;;;;;;;1999.90;999.90;;;12.20;99.90;;;;;;5014627;28;20456;-72
2021/12/30 08:04:47;;;;;;;1999.90;999.90;;;12.20;99.90;;;;;;5012849;28;20483;-72
2021/12/30 08:07:19;;;;;;;1999.90;999.90;;;12.30;99.90;;;;;;5010197;28;20521;-73
2021/12/30 08:09:45;;;;;;;1999.90;999.90;;;12.30;99.90;;;;;;5012925;28;20456;-72
2021/12/30 08:12:12;;;;;;;1999.90;999.90;;;12.30;99.90;;;;;;5011915;28;20456;-72
2021/12/30 08:14:39;;;;;;;1999.90;999.90;;;12.10;99.90;;;;;;5011213;28;20472;-72
2021/12/30 08:17:05;;;;;;;1999.90;999.90;;;12.10;99.90;;;;;;5011004;28;20492;-72
2021/12/30 08:19:33;;;;;;;1999.90;999.90;;;12.10;99.90;;;;;;5012260;28;20468;-72
2021/12/30 08:22:00;;;;;;;1999.90;999.90;;;12.20;99.90;;;;;;5006855;28;20452;-72
2021/12/30 08:24:27;;;;;;;1999.90;999.90;;;12.20;99.90;;;;;;5011822;28;20484;-72
2021/12/30 08:26:53;;;;;;;1999.90;999.90;;;12.20;99.90;;;;;;5012652;28;20479;-73
2021/12/30 08:29:21;;;;;;;1999.90;999.90;;;12.30;99.90;;;;;;5013670;28;20507;-72
2021/12/30 08:31:48;;;;;;;1999.90;999.90;;;12.30;99.90;;;;;;5016639;28;20538;-74
2021/12/30 08:34:15;;;;;;;1999.90;999.90;;;12.40;99.90;;;;;;5013193;28;20483;-73
2021/12/30 08:36:43;;;;;;;1999.90;999.90;;;12.40;99.90;;;;;;5015025;28;20449;-72
2021/12/30 08:39:09;;;;;;;1999.90;999.90;;;12.60;99.90;;;;;;5016624;28;20448;-72
2021/12/30 08:41:36;;;;;;;1999.90;999.90;;;12.60;99.90;;;;;;5012188;28;20460;-72
2021/12/30 08:44:03;;;;;;;1999.90;999.90;;;12.80;99.90;;;;;;5015898;28;20487;-74
2021/12/30 08:46:29;;;;;;;1999.90;999.90;;;12.70;99.90;;;;;;5015002;28;20444;-73
2021/12/30 08:48:56;;;;;;;1999.90;999.90;;;12.60;99.90;;;;;;5010205;28;21017;-72
2021/12/30 08:51:23;;;;;;;1999.90;999.90;;;12.60;99.90;;;;;;5014037;28;20518;-73
2021/12/30 08:53:51;;;;;;;1999.90;999.90;;;12.60;99.90;;;;;;5013764;28;20464;-73
2021/12/30 08:56:17;;;;;;;1999.90;999.90;;;12.80;99.90;;;;;;5013790;28;20510;-74
2021/12/30 08:58:44;;;;;;;1999.90;999.90;;;12.70;99.90;;;;;;5013319;28;20464;-73
2021/12/30 09:01:11;;;;;;;1999.90;999.90;;;12.80;99.90;;;;;;5013906;28;20464;-72
2021/12/30 09:03:37;;;;;;;1999.90;999.90;;;12.90;99.90;;;;;;5012646;28;20484;-72
2021/12/30 09:06:05;;;;;;;1999.90;999.90;;;12.90;99.90;;;;;;5010338;28;20844;-74
2021/12/30 09:08:32;;;;;;;1999.90;999.90;;;13.00;99.90;;;;;;5010611;28;20467;-73
2021/12/30 09:11:00;;;;;;;1999.90;999.90;;;13.00;99.90;;;;;;5011072;28;20468;-73
2021/12/30 09:13:27;;;;;;;1999.90;999.90;;;13.00;99.90;;;;;;5011767;28;20492;-73
2021/12/30 09:15:55;;;;;;;1999.90;999.90;;;13.10;99.90;;;;;;5011500;28;20555;-73
2021/12/30 09:18:23;;;;;;;1999.90;999.90;;;13.20;99.90;;;;;;5011268;28;20496;-73
2021/12/30 09:20:51;;;;;;;1999.90;999.90;;;13.30;99.90;;;;;;5007162;28;20895;-74
2021/12/30 09:23:17;;;;;;;1999.90;999.90;;;13.30;99.90;;;;;;5008970;28;20487;-75
2021/12/30 09:25:44;;;;;;;1999.90;999.90;;;13.30;99.90;;;;;;5010656;28;20472;-73
2021/12/30 09:28:13;;;;;;;1999.90;999.90;;;13.40;99.90;;;;;;5011476;28;20514;-73
2021/12/30 09:30:40;;;;;;;1999.90;999.90;;;13.50;99.90;;;;;;5012231;28;20514;-73
2021/12/30 09:33:07;;;;;;;1999.90;999.90;;;13.60;99.90;;;;;;5011088;28;20476;-74
2021/12/30 09:35:34;;;;;;;1999.90;999.90;;;13.70;99.90;;;;;;5008550;28;20456;-73
2021/12/30 09:38:01;;;;;;;1999.90;999.90;;;13.70;99.90;;;;;;5011988;28;20486;-73
2021/12/30 09:40:28;;;;;;;1999.90;999.90;;;13.70;99.90;;;;;;5009172;28;20514;-73
2021/12/30 09:43:01;;;;;;;1999.90;999.90;;;13.70;99.90;;;;;;5010996;28;20595;-73
2021/12/30 09:45:30;;;;;;;1999.90;999.90;;;13.80;99.90;;;;;;5012396;28;20488;-73
2021/12/30 09:48:00;;;;;;;1999.90;999.90;;;13.70;99.90;;;;;;5008493;28;20449;-71
2021/12/30 09:50:29;;;;;;;1999.90;999.90;;;13.80;99.90;;;;;;5011596;28;20464;-72
2021/12/30 09:52:56;;;;;;;1999.90;999.90;;;13.80;99.90;;;;;;5015974;28;20506;-73
2021/12/30 09:55:25;;;;;;;1999.90;999.90;;;13.80;99.90;;;;;;5015150;28;20575;-73
2021/12/30 09:57:52;;;;;;;1999.90;999.90;;;13.90;99.90;;;;;;5014149;28;20470;-73
2021/12/30 10:00:19;;;;;;;1999.90;999.90;;;14.00;99.90;;;;;;5014061;28;20464;-74
2021/12/30 10:02:47;;;;;;;1999.90;999.90;;;13.90;99.90;;;;;;5015464;28;20510;-74
2021/12/30 10:05:16;;;;;;;1999.90;999.90;;;14.00;99.90;;;;;;5013982;28;20492;-73
2021/12/30 10:07:43;;;;;;;1999.90;999.90;;;13.90;99.90;;;;;;5013933;28;20506;-74
2021/12/30 10:10:28;;;;;;;1999.90;999.90;;;13.90;99.90;;;;;;5013415;28;20892;-73
2021/12/30 10:12:55;;;;;;;1999.90;999.90;;;13.90;99.90;;;;;;5013865;28;20541;-73
2021/12/30 10:15:25;;;;;;;1999.90;999.90;;;13.90;99.90;;;;;;5014922;28;20495;-74
2021/12/30 10:17:57;;;;;;;1999.90;999.90;;;14.00;99.90;;;;;;5014705;28;20840;-74
2021/12/30 10:20:27;;;;;;;1999.90;999.90;;;14.10;99.90;;;;;;5014419;28;20455;-73
2021/12/30 10:22:56;;;;;;;1999.90;999.90;;;14.10;99.90;;;;;;5013974;28;20483;-74
2021/12/30 10:25:32;;;;;;;1999.90;999.90;;;14.20;99.90;;;;;;5013885;28;20537;-73
2021/12/30 10:28:22;;;;;;;1999.90;999.90;;;14.20;99.90;;;;;;5014432;28;20459;-74
2021/12/30 10:30:50;;;;;;;1999.90;999.90;;;14.20;99.90;;;;;;5015085;28;20444;-73
2021/12/30 10:33:20;;;;;;;1999.90;999.90;;;14.30;99.90;;;;;;5011265;28;20488;-73
2021/12/30 10:35:47;;;;;;;1999.90;999.90;;;14.20;99.90;;;;;;5014348;28;20486;-74
2021/12/30 10:38:14;;;;;;;1999.90;999.90;;;14.20;99.90;;;;;;5014940;28;20462;-72
2021/12/30 10:40:43;;;;;;;1999.90;999.90;;;14.30;99.90;;;;;;5014203;28;21216;-73
2021/12/30 10:43:26;;;;;;;1999.90;999.90;;;14.30;99.90;;;;;;5014963;28;20475;-73
2021/12/30 10:46:08;;;;;;;1999.90;999.90;;;14.40;99.90;;;;;;5014988;28;20492;-72
2021/12/30 10:48:51;;;;;;;1999.90;999.90;;;14.40;99.90;;;;;;5014839;28;20500;-73
2021/12/30 10:51:20;;;;;;;1999.90;999.90;;;14.40;99.90;;;;;;5014287;28;20452;-74
2021/12/30 10:53:47;;;;;;;1999.90;999.90;;;14.50;99.90;;;;;;5013297;28;20476;-74
2021/12/30 10:56:31;;;;;;;1999.90;999.90;;;14.60;99.90;;;;;;5014312;28;21123;-73
2021/12/30 10:59:20;;;;;;;1999.90;999.90;;;14.70;99.90;;;;;;5014811;28;20448;-73
2021/12/30 11:01:49;;;;;;;1999.90;999.90;;;14.70;99.90;;;;;;5014484;28;20471;-74
2021/12/30 11:04:18;;;;;;;1999.90;999.90;;;14.80;99.90;;;;;;5014436;28;20542;-74
2021/12/30 11:06:46;;;;;;;1999.90;999.90;;;14.80;99.90;;;;;;5014143;28;20459;-74
2021/12/30 11:09:18;;;;;;;1999.90;999.90;;;14.80;99.90;;;;;;5014379;28;20456;-73
2021/12/30 11:11:48;;;;;;;1999.90;999.90;;;14.70;99.90;;;;;;5014115;28;20972;-73
2021/12/30 11:14:17;;;;;;;1999.90;999.90;;;14.70;99.90;;;;;;5013655;28;20526;-74
2021/12/30 11:17:12;;;;;;;1999.90;999.90;;;14.80;99.90;;;;;;4994719;28;20504;-73
2021/12/30 11:19:42;;;;;;;1999.90;999.90;;;14.70;99.90;;;;;;4981611;28;20961;-72
2021/12/30 11:22:12;;;;;;;1999.90;999.90;;;14.60;99.90;;;;;;5013224;28;20448;-72
2021/12/30 11:24:40;;;;;;;1999.90;999.90;;;14.60;99.90;;;;;;5004017;28;20895;-71
2021/12/30 11:27:08;;;;;;;1999.90;999.90;;;14.60;99.90;;;;;;5012333;28;20914;-75
2021/12/30 11:29:37;;;;;;;1999.90;999.90;;;14.60;99.90;;;;;;5014028;28;20545;-73
2021/12/30 11:32:06;;;;;;;1999.90;999.90;;;14.50;99.90;;;;;;5014170;28;20935;-74
2021/12/30 11:34:33;;;;;;;1999.90;999.90;;;14.60;99.90;;;;;;5014445;28;20530;-73
2021/12/30 11:37:01;;;;;;;1999.90;999.90;;;14.60;99.90;;;;;;5010142;28;20947;-74
2021/12/30 11:39:29;;;;;;;1999.90;999.90;;;14.70;99.90;;;;;;5013658;28;20858;-73
2021/12/30 11:42:00;;;;;;;1999.90;999.90;;;14.80;99.90;;;;;;4994043;28;21019;-74
2021/12/30 11:44:39;;;;;;;1999.90;999.90;;;14.80;99.90;;;;;;4993914;28;20485;-74
2021/12/30 11:47:07;;;;;;;1999.90;999.90;;;14.80;99.90;;;;;;4994490;28;20433;-73
2021/12/30 11:49:58;;;;;;;1999.90;999.90;;;14.80;99.90;;;;;;4994268;28;20444;-72
2021/12/30 11:52:49;;;;;;;1999.90;999.90;;;15.00;99.90;;;;;;5011349;28;20845;-74
2021/12/30 11:55:42;;;;;;;1999.90;999.90;;;15.20;99.90;;;;;;5008542;28;20452;-74
2021/12/30 11:58:46;;;;;;;1999.90;999.90;;;15.20;99.90;;;;;;5013485;28;20510;-74
2021/12/30 12:01:45;;;;;;;1999.90;999.90;;;15.40;99.90;;;;;;5002296;28;20445;-75
2021/12/30 12:04:16;;;;;;;1999.90;999.90;;;15.30;99.90;;;;;;4951936;29;20521;-75